Time;durP1;ratioP1;P1;durP2;ratioP2;P2;SDS_P1;SDS_P2;PMS_P1;PMS_P2;Temp;Humidity;BMP_temperature;BMP_pressure;BME280_temperature;BME280_humidity;BME280_pressure;Samples;Min_cycle;Max_cycle;Signal;HPM_P1;HPM_P2
2022/11/17 00:01:40;;;;;;;9.02;6.18;;;;;;;11.34;100.00;97113.84;5052744;28;20174;-54
2022/11/17 00:04:06;;;;;;;8.05;5.63;;;;;;;11.35;100.00;97107.72;5051123;28;20280;-55
2022/11/17 00:06:31;;;;;;;7.90;5.75;;;;;;;11.44;100.00;97114.66;5050997;28;20280;-55
2022/11/17 00:08:57;;;;;;;6.30;5.13;;;;;;;11.29;100.00;97118.63;5052471;28;20178;-55
2022/11/17 00:11:22;;;;;;;7.05;5.38;;;;;;;11.28;100.00;97107.47;5052477;28;20193;-54
2022/11/17 00:16:31;;;;;;;6.38;5.30;;;;;;;11.24;100.00;97095.75;5052906;28;20164;-55
2022/11/17 00:21:41;;;;;;;9.15;6.70;;;;;;;11.10;100.00;97090.22;5052691;28;20161;-55
2022/11/17 00:24:06;;;;;;;9.95;5.75;;;;;;;11.10;100.00;97093.59;5050955;28;20170;-55
2022/11/17 00:26:34;;;;;;;7.45;5.70;;;;;;;11.10;100.00;97095.41;5052548;28;20177;-55
2022/11/17 00:29:03;;;;;;;9.68;5.70;;;;;;;11.12;100.00;97098.66;5052484;28;20560;-55
2022/11/17 00:34:21;;;;;;;7.88;4.90;;;;;;;11.20;100.00;97099.59;5052298;28;20164;-55
2022/11/17 00:36:51;;;;;;;6.82;5.63;;;;;;;11.21;100.00;97103.00;5051977;28;20162;-55
2022/11/17 00:39:19;;;;;;;7.50;5.50;;;;;;;11.17;100.00;97093.88;5051858;28;20173;-55
2022/11/17 00:41:45;;;;;;;6.10;5.50;;;;;;;11.13;100.00;97097.69;5052014;28;20169;-55
2022/11/17 00:44:10;;;;;;;8.23;5.90;;;;;;;11.21;100.00;97100.41;5051841;28;20632;-55
2022/11/17 00:46:37;;;;;;;7.53;5.20;;;;;;;11.30;100.00;97109.91;5051829;28;20659;-55
2022/11/17 00:49:04;;;;;;;9.63;5.40;;;;;;;11.35;100.00;97110.31;5052096;28;20583;-55
2022/11/17 00:51:30;;;;;;;10.35;5.63;;;;;;;11.38;100.00;97112.63;5051950;28;20205;-55
2022/11/17 00:53:55;;;;;;;24.55;13.48;;;;;;;11.39;100.00;97107.28;5051669;28;20169;-55
2022/11/17 00:56:21;;;;;;;30.38;19.25;;;;;;;11.39;100.00;97103.91;5052096;28;20180;-54
2022/11/17 00:58:47;;;;;;;29.52;17.48;;;;;;;11.39;100.00;97104.69;5052102;28;20220;-55
2022/11/17 01:01:13;;;;;;;31.55;20.35;;;;;;;11.44;100.00;97112.06;5051807;28;20609;-55
2022/11/17 01:03:39;;;;;;;23.05;14.43;;;;;;;11.33;100.00;97104.47;5051774;28;20166;-55
2022/11/17 01:06:11;;;;;;;24.33;16.10;;;;;;;11.29;100.00;97098.75;5051543;28;20209;-55
2022/11/17 01:08:37;;;;;;;23.60;15.77;;;;;;;11.34;100.00;97095.72;5051866;28;20631;-55
2022/11/17 01:11:10;;;;;;;32.28;20.02;;;;;;;11.30;100.00;97094.38;5050265;28;20225;-55
2022/11/17 01:13:37;;;;;;;35.53;20.17;;;;;;;11.34;100.00;97093.16;5051729;28;20224;-55
2022/11/17 01:16:08;;;;;;;33.08;19.48;;;;;;;11.34;100.00;97083.63;5051685;28;20177;-56
2022/11/17 01:18:34;;;;;;;29.55;19.70;;;;;;;11.40;100.00;97082.22;5051645;28;20162;-55
2022/11/17 01:21:23;;;;;;;30.55;17.15;;;;;;;11.42;100.00;97073.34;5051509;28;20528;-55
2022/11/17 01:23:51;;;;;;;27.80;17.58;;;;;;;11.45;100.00;97082.59;5051520;28;20196;-55
2022/11/17 01:26:20;;;;;;;26.65;17.48;;;;;;;11.38;100.00;97078.97;5051903;28;20559;-55
2022/11/17 01:28:46;;;;;;;31.33;18.20;;;;;;;11.31;100.00;97070.94;5051608;28;20243;-55
2022/11/17 01:31:14;;;;;;;24.95;16.40;;;;;;;11.30;100.00;97076.25;5051444;28;20200;-55
2022/11/17 01:33:40;;;;;;;27.13;17.50;;;;;;;11.28;100.00;97075.59;5051760;28;20174;-55
2022/11/17 01:36:12;;;;;;;24.65;16.27;;;;;;;11.20;100.00;97065.94;5051397;28;20724;-55
2022/11/17 01:38:37;;;;;;;23.20;15.63;;;;;;;11.16;100.00;97066.38;5051580;28;20162;-55
2022/11/17 01:41:05;;;;;;;20.90;14.43;;;;;;;11.13;100.00;97058.88;5051340;28;20537;-55
2022/11/17 01:43:48;;;;;;;18.05;11.98;;;;;;;10.97;100.00;97056.06;5051076;28;20185;-55
2022/11/17 01:46:36;;;;;;;22.05;14.30;;;;;;;10.85;100.00;97060.56;5055924;28;20177;-55
2022/11/17 01:49:15;;;;;;;22.00;14.93;;;;;;;10.88;100.00;97052.56;5055301;28;20181;-55
2022/11/17 01:51:45;;;;;;;22.42;13.05;;;;;;;10.71;100.00;97057.59;5055189;28;20276;-55
2022/11/17 01:54:13;;;;;;;23.25;13.95;;;;;;;10.59;100.00;97063.88;5055233;28;20162;-55
2022/11/17 01:56:43;;;;;;;26.02;15.80;;;;;;;10.69;100.00;97057.75;5055398;28;20173;-55
2022/11/17 01:59:19;;;;;;;25.30;17.15;;;;;;;10.69;100.00;97055.16;5055010;28;20632;-55
2022/11/17 02:01:55;;;;;;;26.65;17.88;;;;;;;10.62;100.00;97061.03;5055348;28;20158;-55
2022/11/17 02:04:26;;;;;;;28.23;18.77;;;;;;;10.49;100.00;97060.47;5054762;28;20771;-55
2022/11/17 02:06:59;;;;;;;30.77;19.08;;;;;;;10.61;100.00;97062.81;5054672;28;20190;-55
2022/11/17 02:09:26;;;;;;;32.28;19.23;;;;;;;10.74;100.00;97075.44;5055057;28;20165;-55
2022/11/17 02:11:52;;;;;;;41.08;24.30;;;;;;;10.84;100.00;97081.41;5054909;28;20198;-55
2022/11/17 02:14:17;;;;;;;49.30;29.17;;;;;;;10.86;100.00;97064.00;5054700;28;20788;-55
2022/11/17 02:16:43;;;;;;;40.58;25.67;;;;;;;10.92;100.00;97059.06;5054660;28;20186;-55
2022/11/17 02:19:13;;;;;;;43.45;26.35;;;;;;;10.77;100.00;97067.41;5054683;28;20170;-55
2022/11/17 02:21:53;;;;;;;49.92;29.45;;;;;;;10.70;100.00;97066.34;5054673;28;20296;-55
2022/11/17 02:24:37;;;;;;;46.03;29.05;;;;;;;10.63;100.00;97067.84;5054611;28;20244;-55
2022/11/17 02:27:21;;;;;;;47.90;28.90;;;;;;;10.72;100.00;97074.75;5054759;28;20562;-55
2022/11/17 02:30:09;;;;;;;49.78;28.83;;;;;;;10.75;100.00;97058.97;5054356;28;20243;-55
2022/11/17 02:32:35;;;;;;;46.03;30.10;;;;;;;10.62;100.00;97048.91;5054139;28;20197;-55
2022/11/17 02:35:15;;;;;;;55.90;33.28;;;;;;;10.50;100.00;97051.81;5054466;28;20174;-55
2022/11/17 02:37:59;;;;;;;56.83;33.30;;;;;;;10.61;100.00;97038.69;5054385;28;20201;-55
2022/11/17 02:40:34;;;;;;;55.40;32.17;;;;;;;10.58;100.00;97039.81;5054413;28;20184;-55
2022/11/17 02:45:50;;;;;;;50.03;29.15;;;;;;;10.39;100.00;97034.63;5054517;28;20165;-55
2022/11/17 02:48:29;;;;;;;46.90;28.08;;;;;;;10.33;100.00;97037.78;5053979;28;20177;-55
2022/11/17 02:50:57;;;;;;;41.92;25.45;;;;;;;10.24;100.00;97030.84;5053972;28;20186;-55
2022/11/17 02:53:25;;;;;;;38.95;25.23;;;;;;;10.12;100.00;97025.94;5054487;28;20200;-55
2022/11/17 02:55:52;;;;;;;38.97;24.48;;;;;;;9.96;100.00;97020.47;5054029;28;20269;-55
2022/11/17 02:58:17;;;;;;;38.40;24.58;;;;;;;9.82;100.00;97026.03;5053933;28;20170;-55
2022/11/17 03:01:21;;;;;;;39.78;24.92;;;;;;;9.87;100.00;97026.44;5053896;28;20227;-55
2022/11/17 03:04:14;;;;;;;35.53;22.27;;;;;;;9.99;100.00;97025.38;5052760;28;20193;-55
2022/11/17 03:07:05;;;;;;;31.35;19.67;;;;;;;10.07;100.00;97030.69;5053525;28;20222;-56
2022/11/17 03:10:18;;;;;;;37.28;21.15;;;;;;;10.05;100.00;97019.69;5053640;28;20177;-55
2022/11/17 03:13:06;;;;;;;30.90;20.75;;;;;;;10.01;100.00;97013.13;5052688;28;20212;-55
2022/11/17 03:15:44;;;;;;;33.22;21.70;;;;;;;9.98;100.00;97016.00;5053574;28;20189;-55
2022/11/17 03:18:34;;;;;;;35.13;21.30;;;;;;;10.01;100.00;97019.13;5053722;28;20265;-55
2022/11/17 03:21:37;;;;;;;34.75;20.98;;;;;;;9.93;100.00;97020.75;5053625;28;20154;-55
2022/11/17 03:24:13;;;;;;;35.00;20.58;;;;;;;9.73;100.00;97019.06;5053871;28;20185;-55
2022/11/17 03:26:46;;;;;;;35.20;19.90;;;;;;;9.70;100.00;97016.78;5053760;28;20264;-55
2022/11/17 03:29:17;;;;;;;34.10;20.58;;;;;;;9.75;100.00;97014.59;5053592;28;20192;-55
2022/11/17 03:31:46;;;;;;;36.45;21.58;;;;;;;9.68;100.00;97006.56;5053077;28;20687;-56
2022/11/17 03:34:15;;;;;;;37.63;21.10;;;;;;;9.56;100.00;97006.00;5053132;28;20178;-55
2022/11/17 03:36:47;;;;;;;36.63;22.77;;;;;;;9.53;100.00;97010.47;5053289;28;20240;-55
2022/11/17 03:39:18;;;;;;;30.55;19.73;;;;;;;9.54;100.00;97003.56;5053315;28;20192;-55
2022/11/17 03:41:47;;;;;;;37.65;19.67;;;;;;;9.49;100.00;97010.88;5051655;28;20655;-55
2022/11/17 03:44:14;;;;;;;36.15;20.23;;;;;;;9.54;100.00;97021.63;5053081;28;20574;-55
2022/11/17 03:46:43;;;;;;;30.25;19.05;;;;;;;9.45;100.00;97019.84;5052735;28;20181;-55
2022/11/17 03:49:36;;;;;;;31.15;19.35;;;;;;;9.50;100.00;97017.66;5052825;28;20177;-55
2022/11/17 03:52:02;;;;;;;29.25;18.92;;;;;;;9.53;100.00;97012.25;5052766;28;20197;-55
2022/11/17 03:54:28;;;;;;;35.38;20.80;;;;;;;9.55;100.00;97022.47;5052896;28;20186;-55
2022/11/17 03:57:09;;;;;;;31.35;19.00;;;;;;;9.57;100.00;97013.63;5052806;28;20567;-55
2022/11/17 03:59:45;;;;;;;29.77;18.35;;;;;;;9.42;100.00;97021.84;5052891;28;20169;-55
2022/11/17 04:02:19;;;;;;;32.97;19.75;;;;;;;9.38;100.00;97010.97;5052856;28;20158;-55
2022/11/17 04:07:28;;;;;;;30.65;19.30;;;;;;;9.54;100.00;97008.72;5052242;28;20606;-55
2022/11/17 04:09:54;;;;;;;30.30;17.77;;;;;;;9.59;100.00;96998.81;5052411;28;20201;-55
2022/11/17 04:17:47;;;;;;;26.15;15.52;;;;;;;9.86;100.00;97020.47;5052566;28;20576;-55
2022/11/17 04:20:13;;;;;;;27.75;17.08;;;;;;;9.92;100.00;97019.13;5052194;28;20265;-55
2022/11/17 04:22:38;;;;;;;27.17;17.40;;;;;;;9.96;100.00;97015.28;5052178;28;20256;-55
2022/11/17 04:25:04;;;;;;;28.85;16.23;;;;;;;9.97;100.00;97017.75;5052251;28;20258;-55
2022/11/17 04:30:14;;;;;;;29.27;18.33;;;;;;;9.90;100.00;97000.34;5052225;28;20208;-55
2022/11/17 04:32:39;;;;;;;36.20;21.88;;;;;;;9.94;100.00;96993.97;5052165;28;20201;-55
2022/11/17 04:35:05;;;;;;;32.90;19.95;;;;;;;10.03;100.00;97000.88;5052121;28;20260;-55
2022/11/17 04:37:30;;;;;;;36.70;21.15;;;;;;;10.02;100.00;97001.84;5052023;28;20682;-55
2022/11/17 04:39:55;;;;;;;38.20;24.52;;;;;;;10.17;100.00;96993.56;5051984;28;20230;-55
2022/11/17 04:42:21;;;;;;;46.28;27.63;;;;;;;10.23;100.00;96994.78;5051790;28;20612;-55
2022/11/17 04:44:46;;;;;;;45.15;26.55;;;;;;;10.09;100.00;96984.88;5050687;28;20181;-55
2022/11/17 04:47:13;;;;;;;49.45;27.88;;;;;;;10.07;100.00;96979.03;5051804;28;20173;-55
2022/11/17 04:49:38;;;;;;;47.42;30.35;;;;;;;9.95;100.00;96972.34;5051805;28;20268;-55
2022/11/17 04:52:04;;;;;;;46.03;29.50;;;;;;;9.93;100.00;96969.88;5052141;28;20289;-55
2022/11/17 04:54:29;;;;;;;43.58;25.83;;;;;;;10.01;100.00;96967.44;5051741;28;20204;-55
2022/11/17 04:56:55;;;;;;;42.58;26.88;;;;;;;9.90;100.00;96953.84;5052063;28;20181;-55
2022/11/17 04:59:21;;;;;;;47.83;27.52;;;;;;;9.82;100.00;96959.66;5052099;28;20247;-55
2022/11/17 05:01:47;;;;;;;40.55;25.38;;;;;;;9.88;100.00;96950.59;5051805;28;20170;-55
2022/11/17 05:06:59;;;;;;;37.17;23.70;;;;;;;9.86;100.00;96952.50;5051866;28;20285;-55
2022/11/17 05:09:25;;;;;;;36.92;22.50;;;;;;;9.92;100.00;96941.63;5051790;28;20221;-55
2022/11/17 05:14:34;;;;;;;44.28;23.88;;;;;;;9.73;100.00;96939.00;5051852;28;20267;-55
2022/11/17 05:17:05;;;;;;;33.70;21.38;;;;;;;9.64;100.00;96934.69;5051551;28;20703;-55
2022/11/17 05:19:32;;;;;;;30.38;19.50;;;;;;;9.67;100.00;96936.19;5054320;28;20170;-55
2022/11/17 05:21:58;;;;;;;32.55;20.00;;;;;;;9.78;100.00;96940.25;5055799;28;20174;-55
2022/11/17 05:24:24;;;;;;;30.92;18.33;;;;;;;9.81;100.00;96944.34;5055679;28;20181;-55
2022/11/17 05:26:50;;;;;;;33.00;19.58;;;;;;;9.72;100.00;96934.00;5055952;28;20192;-55
2022/11/17 05:29:18;;;;;;;31.23;20.02;;;;;;;9.72;100.00;96939.97;5055955;28;20169;-55
2022/11/17 05:31:43;;;;;;;28.05;17.52;;;;;;;9.77;100.00;96943.78;5055693;28;20274;-55
2022/11/17 05:34:11;;;;;;;28.48;17.77;;;;;;;9.84;100.00;96950.03;5054200;28;20639;-55
2022/11/17 05:36:37;;;;;;;29.55;18.35;;;;;;;9.88;100.00;96951.38;5055746;28;20613;-55
2022/11/17 05:39:04;;;;;;;29.40;17.17;;;;;;;9.98;100.00;96946.25;5055398;28;20208;-55
2022/11/17 05:41:29;;;;;;;27.55;18.27;;;;;;;10.03;100.00;96964.69;5055286;28;20169;-55
2022/11/17 05:43:55;;;;;;;33.17;19.23;;;;;;;10.10;100.00;96966.63;5055492;28;20228;-55
2022/11/17 05:46:22;;;;;;;36.75;24.17;;;;;;;10.18;100.00;96974.53;5055512;28;20227;-56
2022/11/17 05:48:49;;;;;;;34.28;22.58;;;;;;;10.23;100.00;96963.78;5055393;28;20177;-55
2022/11/17 05:51:16;;;;;;;53.95;34.42;;;;;;;10.22;100.00;96969.91;5054923;28;20193;-55
2022/11/17 05:53:42;;;;;;;42.35;27.92;;;;;;;10.26;100.00;96960.91;5054964;28;20639;-55
2022/11/17 05:56:23;;;;;;;48.67;29.52;;;;;;;10.15;100.00;96976.59;5055016;28;20311;-55
2022/11/17 05:58:54;;;;;;;37.40;23.92;;;;;;;10.22;100.00;96982.84;5055446;28;20162;-55
2022/11/17 06:01:20;;;;;;;38.05;26.00;;;;;;;10.22;100.00;96977.66;5055172;28;20607;-55
2022/11/17 06:03:54;;;;;;;40.63;25.65;;;;;;;10.24;100.00;96980.91;5054782;28;20204;-55
2022/11/17 06:06:20;;;;;;;36.38;23.25;;;;;;;10.32;100.00;96975.88;5055070;28;20189;-55
2022/11/17 06:08:46;;;;;;;38.83;25.60;;;;;;;10.39;100.00;96979.56;5054725;28;20173;-55
2022/11/17 06:11:11;;;;;;;35.95;23.83;;;;;;;10.38;100.00;96985.66;5053449;28;20209;-55
2022/11/17 06:13:37;;;;;;;35.90;24.75;;;;;;;10.44;100.00;97000.63;5054715;28;20593;-55
2022/11/17 06:16:06;;;;;;;40.17;24.25;;;;;;;10.46;100.00;96999.50;5054667;28;20614;-55
2022/11/17 06:18:38;;;;;;;38.65;25.88;;;;;;;10.52;100.00;96998.16;5054898;28;20209;-55
2022/11/17 06:21:04;;;;;;;36.00;23.80;;;;;;;10.57;100.00;97003.75;5054596;28;20233;-55
2022/11/17 06:23:32;;;;;;;39.47;25.27;;;;;;;10.60;100.00;96993.09;5054548;28;20174;-55
2022/11/17 06:26:02;;;;;;;38.70;24.95;;;;;;;10.59;100.00;96994.88;5053256;28;20181;-55
2022/11/17 06:28:29;;;;;;;43.30;27.58;;;;;;;10.63;100.00;96995.41;5054519;28;20173;-55
2022/11/17 06:30:55;;;;;;;40.85;26.60;;;;;;;10.72;100.00;97007.50;5053748;28;20204;-55
2022/11/17 06:33:21;;;;;;;46.25;28.02;;;;;;;10.75;100.00;97009.81;5054154;28;20181;-55
2022/11/17 06:35:48;;;;;;;45.92;28.50;;;;;;;10.81;100.00;97004.09;5054352;28;20595;-55
2022/11/17 06:38:14;;;;;;;45.80;27.25;;;;;;;10.89;100.00;97002.44;5054240;28;20170;-55
2022/11/17 06:40:39;;;;;;;42.83;26.15;;;;;;;10.90;100.00;96998.06;5053180;28;20178;-55
2022/11/17 06:43:08;;;;;;;47.17;27.42;;;;;;;10.95;100.00;96996.69;5054236;28;20174;-55
2022/11/17 06:45:54;;;;;;;43.28;27.92;;;;;;;11.00;100.00;97004.84;5054005;28;20174;-55
2022/11/17 06:48:25;;;;;;;45.10;26.77;;;;;;;10.95;100.00;96996.69;5054273;28;20194;-55
2022/11/17 06:50:54;;;;;;;46.53;27.60;;;;;;;10.93;100.00;96993.44;5053997;28;20197;-55
2022/11/17 06:53:25;;;;;;;45.42;27.77;;;;;;;10.96;100.00;96993.13;5054155;28;20204;-55
2022/11/17 06:56:10;;;;;;;56.42;29.40;;;;;;;11.01;100.00;96984.94;5054397;28;20227;-55
2022/11/17 06:58:38;;;;;;;47.13;29.30;;;;;;;11.04;100.00;96976.91;5052835;28;20617;-55
2022/11/17 07:01:06;;;;;;;47.15;28.08;;;;;;;11.09;100.00;96975.50;5053998;28;20204;-55
2022/11/17 07:03:34;;;;;;;48.05;28.77;;;;;;;11.10;100.00;96968.56;5054074;28;20177;-55
2022/11/17 07:05:59;;;;;;;59.17;32.65;;;;;;;11.03;100.00;96962.34;5053663;28;20220;-55
2022/11/17 07:08:25;;;;;;;50.28;31.77;;;;;;;11.01;100.00;96948.72;5053877;28;20173;-55
2022/11/17 07:10:53;;;;;;;46.13;28.70;;;;;;;11.13;100.00;96950.16;5053710;28;20197;-55
2022/11/17 07:13:23;;;;;;;51.45;29.23;;;;;;;11.08;100.00;96945.41;5054014;28;20268;-55
2022/11/17 07:15:50;;;;;;;48.53;30.92;;;;;;;11.03;100.00;96952.00;5054033;28;20287;-55
2022/11/17 07:18:17;;;;;;;50.03;30.58;;;;;;;11.01;100.00;96935.78;5053658;28;20602;-55
2022/11/17 07:20:43;;;;;;;52.67;31.05;;;;;;;11.09;100.00;96925.53;5053474;28;20177;-55
2022/11/17 07:23:09;;;;;;;65.53;37.75;;;;;;;11.13;100.00;96919.09;5053686;28;20180;-55
2022/11/17 07:25:34;;;;;;;53.17;32.75;;;;;;;11.07;100.00;96923.09;5053489;28;20173;-55
2022/11/17 07:28:00;;;;;;;64.82;41.42;;;;;;;11.15;100.00;96922.38;5053711;28;20170;-55
2022/11/17 07:30:25;;;;;;;62.95;36.25;;;;;;;11.14;100.00;96928.50;5053627;28;20181;-55
2022/11/17 07:32:51;;;;;;;57.13;34.70;;;;;;;11.13;100.00;96929.44;5053243;28;20201;-55
2022/11/17 07:35:16;;;;;;;59.00;35.70;;;;;;;11.15;100.00;96932.72;5053594;28;20582;-55
2022/11/17 07:37:42;;;;;;;60.22;34.25;;;;;;;11.14;100.00;96936.28;5053214;28;20227;-56
2022/11/17 07:40:09;;;;;;;58.45;33.67;;;;;;;11.21;100.00;96935.53;5053308;28;20584;-55
2022/11/17 07:42:34;;;;;;;56.67;34.95;;;;;;;11.26;100.00;96948.06;5052290;28;20593;-55
2022/11/17 07:45:00;;;;;;;60.53;39.13;;;;;;;11.25;100.00;96951.59;5051678;28;20170;-56
2022/11/17 07:47:25;;;;;;;60.63;37.45;;;;;;;11.28;100.00;96951.31;5052810;28;20256;-55
2022/11/17 07:49:51;;;;;;;60.63;38.30;;;;;;;11.30;100.00;96954.56;5052998;28;20169;-55
2022/11/17 07:52:16;;;;;;;64.60;36.83;;;;;;;11.31;100.00;96953.59;5052942;28;20197;-56
2022/11/17 07:54:42;;;;;;;63.38;36.72;;;;;;;11.35;100.00;96953.19;5052891;28;20170;-55
2022/11/17 07:57:07;;;;;;;57.40;33.15;;;;;;;11.35;100.00;96953.19;5052019;28;20263;-55
2022/11/17 07:59:33;;;;;;;63.20;35.78;;;;;;;11.40;100.00;96957.91;5052902;28;20208;-55
2022/11/17 08:01:58;;;;;;;59.28;35.75;;;;;;;11.43;100.00;96960.22;5053115;28;20257;-55
2022/11/17 08:04:23;;;;;;;56.53;34.03;;;;;;;11.42;100.00;96963.75;5053002;28;20323;-55
2022/11/17 08:06:49;;;;;;;60.95;35.53;;;;;;;11.43;100.00;96966.22;5052608;28;20553;-54
2022/11/17 08:09:15;;;;;;;61.33;33.95;;;;;;;11.44;100.00;96964.44;5052720;28;20177;-54
2022/11/17 08:11:40;;;;;;;54.65;32.88;;;;;;;11.46;100.00;96970.28;5052614;28;20240;-55
2022/11/17 08:14:06;;;;;;;62.38;36.47;;;;;;;11.49;100.00;96970.00;5052616;28;20252;-54
2022/11/17 08:16:32;;;;;;;62.47;35.72;;;;;;;11.53;100.00;96966.97;5052568;28;20204;-54
2022/11/17 08:18:57;;;;;;;63.70;38.80;;;;;;;11.51;100.00;96963.72;5052456;28;20189;-54
2022/11/17 08:21:23;;;;;;;62.33;40.28;;;;;;;11.50;100.00;96974.22;5052476;28;20173;-54
2022/11/17 08:23:54;;;;;;;68.07;39.35;;;;;;;11.52;100.00;96980.06;5052728;28;20169;-55
2022/11/17 08:26:20;;;;;;;73.53;41.50;;;;;;;11.56;100.00;96981.41;5052655;28;20165;-55
2022/11/17 08:28:46;;;;;;;61.85;38.40;;;;;;;11.58;100.00;96995.88;5052413;28;20192;-55
2022/11/17 08:31:12;;;;;;;66.70;38.65;;;;;;;11.61;100.00;97010.31;5052171;28;20225;-55
2022/11/17 08:33:38;;;;;;;75.38;45.08;;;;;;;11.60;100.00;97011.25;5052512;28;20674;-54
2022/11/17 08:36:06;;;;;;;77.10;45.10;;;;;;;11.58;100.00;97001.06;5052218;28;20247;-55
2022/11/17 08:38:32;;;;;;;79.00;45.70;;;;;;;11.60;100.00;97019.03;5052464;28;20177;-54
2022/11/17 08:41:01;;;;;;;82.45;46.78;;;;;;;11.62;100.00;97019.72;5052152;28;20250;-55
2022/11/17 08:43:26;;;;;;;80.32;45.60;;;;;;;11.65;100.00;97011.63;5051990;28;20177;-55
2022/11/17 08:45:52;;;;;;;77.03;46.22;;;;;;;11.63;100.00;97014.41;5050809;28;20234;-55
2022/11/17 08:48:18;;;;;;;80.40;45.97;;;;;;;11.59;100.00;97018.22;5051998;28;20174;-55
2022/11/17 08:50:43;;;;;;;83.35;47.42;;;;;;;11.59;100.00;97012.22;5051926;28;20701;-55
2022/11/17 08:53:14;;;;;;;72.00;43.88;;;;;;;11.52;100.00;97011.97;5051798;28;20207;-54
2022/11/17 08:55:39;;;;;;;78.18;45.50;;;;;;;11.53;100.00;97023.13;5052187;28;20193;-54
2022/11/17 08:58:05;;;;;;;79.00;44.63;;;;;;;11.58;100.00;97031.28;5051952;28;20654;-54
2022/11/17 09:00:30;;;;;;;96.75;58.95;;;;;;;11.64;100.00;97051.47;5051836;28;20673;-54
2022/11/17 09:02:55;;;;;;;93.93;53.50;;;;;;;11.73;100.00;97060.97;5051830;28;20256;-54
2022/11/17 09:05:21;;;;;;;84.88;50.22;;;;;;;11.71;100.00;97078.41;5051698;28;20710;-54
2022/11/17 09:07:46;;;;;;;89.18;51.67;;;;;;;11.77;100.00;97111.53;5050911;28;20161;-54
2022/11/17 09:10:11;;;;;;;85.07;44.72;;;;;;;11.78;100.00;97133.91;5051634;28;20780;-55
2022/11/17 09:12:37;;;;;;;70.53;40.97;;;;;;;11.73;100.00;97149.06;5051941;28;20197;-55
2022/11/17 09:15:04;;;;;;;76.38;43.63;;;;;;;11.57;100.00;97135.88;5051812;28;20197;-54
2022/11/17 09:17:30;;;;;;;85.90;46.15;;;;;;;11.48;100.00;97126.34;5051588;28;20592;-54
2022/11/17 09:19:56;;;;;;;68.00;43.00;;;;;;;11.39;100.00;97111.66;5050156;28;20174;-55
2022/11/17 09:22:21;;;;;;;75.78;42.58;;;;;;;11.38;100.00;97117.81;5051522;28;20184;-55
2022/11/17 09:24:47;;;;;;;70.80;42.95;;;;;;;11.34;100.00;97098.31;5051492;28;20170;-54
2022/11/17 09:27:12;;;;;;;66.05;40.70;;;;;;;11.35;100.00;97098.19;5051647;28;20176;-54
2022/11/17 09:29:38;;;;;;;66.75;39.88;;;;;;;11.35;100.00;97102.53;5052388;28;20170;-54
2022/11/17 09:32:03;;;;;;;65.22;38.60;;;;;;;11.36;100.00;97094.63;5051457;28;20698;-55
2022/11/17 09:34:29;;;;;;;62.28;37.00;;;;;;;11.40;100.00;97089.97;5051447;28;20170;-54
2022/11/17 09:36:54;;;;;;;62.13;36.35;;;;;;;11.41;100.00;97089.84;5051768;28;20232;-54
2022/11/17 09:39:20;;;;;;;58.33;35.40;;;;;;;11.39;100.00;97083.19;5051347;28;20561;-55
2022/11/17 09:41:49;;;;;;;61.38;37.15;;;;;;;11.41;100.00;97082.09;5051597;28;20196;-55
2022/11/17 09:44:20;;;;;;;65.00;39.17;;;;;;;11.46;100.00;97079.06;5051735;28;20212;-55
2022/11/17 09:47:11;;;;;;;64.88;37.10;;;;;;;11.51;100.00;97066.50;5051499;28;20311;-55
2022/11/17 09:49:52;;;;;;;67.72;40.67;;;;;;;11.52;100.00;97058.59;5051007;28;20749;-55
2022/11/17 09:52:22;;;;;;;63.83;39.30;;;;;;;11.61;100.00;97056.94;5051160;28;20224;-55
2022/11/17 09:54:55;;;;;;;63.60;39.85;;;;;;;11.53;100.00;97043.84;5051133;28;20193;-55
2022/11/17 09:57:33;;;;;;;62.00;36.22;;;;;;;11.61;100.00;97049.97;5051311;28;20600;-55
2022/11/17 10:00:19;;;;;;;58.80;36.58;;;;;;;11.56;100.00;97049.56;5051243;28;20170;-55
2022/11/17 10:02:45;;;;;;;62.60;37.72;;;;;;;11.53;100.00;97033.47;5050992;28;20178;-55
2022/11/17 10:05:25;;;;;;;57.45;36.63;;;;;;;11.54;100.00;97027.34;5052872;28;20657;-55
2022/11/17 10:07:52;;;;;;;62.15;38.25;;;;;;;11.61;100.00;97005.13;5054987;28;20239;-55
2022/11/17 10:10:33;;;;;;;51.67;34.80;;;;;;;11.59;100.00;96997.50;5054947;28;20220;-55
2022/11/17 10:12:59;;;;;;;53.13;35.20;;;;;;;11.52;100.00;96986.06;5054699;28;20169;-55
2022/11/17 10:15:34;;;;;;;55.92;34.33;;;;;;;11.61;100.00;96976.66;5054833;28;20228;-55
2022/11/17 10:18:00;;;;;;;42.78;28.23;;;;;;;11.72;100.00;96969.47;5054546;28;20248;-55
2022/11/17 10:20:25;;;;;;;42.25;27.63;;;;;;;11.77;100.00;96964.66;5054527;28;20174;-55
2022/11/17 10:22:52;;;;;;;41.83;26.17;;;;;;;11.84;100.00;96955.31;5054431;28;20172;-55
2022/11/17 10:25:35;;;;;;;40.75;26.52;;;;;;;11.92;100.00;96946.81;5054349;28;20271;-55
2022/11/17 10:28:00;;;;;;;41.17;26.75;;;;;;;12.04;100.00;96936.06;5054399;28;20181;-55
2022/11/17 10:30:25;;;;;;;42.97;28.73;;;;;;;12.06;100.00;96930.72;5054330;28;20174;-56
2022/11/17 10:32:54;;;;;;;44.40;28.13;;;;;;;12.00;100.00;96932.16;5054313;28;20208;-55
2022/11/17 10:35:25;;;;;;;40.95;26.48;;;;;;;11.92;100.00;96928.66;5053072;28;20197;-55
2022/11/17 10:37:54;;;;;;;41.33;27.35;;;;;;;11.87;100.00;96925.72;5054172;28;20166;-55
2022/11/17 10:40:22;;;;;;;40.65;25.95;;;;;;;11.83;100.00;96922.59;5054115;28;20181;-55
2022/11/17 10:43:21;;;;;;;40.53;25.50;;;;;;;11.87;100.00;96933.47;5054315;28;20174;-55
2022/11/17 10:45:49;;;;;;;38.53;25.02;;;;;;;11.94;100.00;96935.34;5053492;28;20205;-55
2022/11/17 10:48:31;;;;;;;38.80;25.17;;;;;;;12.02;100.00;96943.16;5054310;28;20615;-55
2022/11/17 10:51:02;;;;;;;29.65;19.33;;;;;;;12.08;100.00;96931.41;5054161;28;20227;-56
2022/11/17 10:53:37;;;;;;;36.58;22.50;;;;;;;12.12;100.00;96924.94;5054389;28;20169;-55
2022/11/17 10:56:12;;;;;;;31.50;20.75;;;;;;;12.17;100.00;96910.56;5053979;28;20184;-55
2022/11/17 10:59:15;;;;;;;21.27;15.25;;;;;;;12.56;100.00;96910.97;5053993;28;20166;-55
2022/11/17 11:01:43;;;;;;;23.98;16.58;;;;;;;12.80;100.00;96921.50;5052697;28;20597;-56
2022/11/17 11:04:35;;;;;;;23.42;15.65;;;;;;;13.02;100.00;96928.78;5053916;28;20261;-55
2022/11/17 11:07:11;;;;;;;23.17;15.05;;;;;;;13.28;100.00;96932.94;5053557;28;20711;-55
2022/11/17 11:09:54;;;;;;;20.40;14.45;;;;;;;13.60;100.00;96933.00;5053857;28;20177;-55
2022/11/17 11:12:34;;;;;;;19.48;14.00;;;;;;;13.82;100.00;96936.78;5052176;28;20558;-55
2022/11/17 11:15:01;;;;;;;18.50;13.65;;;;;;;14.05;100.00;96935.19;5053381;28;20154;-56
2022/11/17 11:17:28;;;;;;;21.48;15.77;;;;;;;14.19;100.00;96934.56;5053722;28;20531;-55
2022/11/17 11:19:54;;;;;;;27.02;16.42;;;;;;;14.24;100.00;96933.09;5053259;28;20670;-55
2022/11/17 11:22:26;;;;;;;27.55;17.50;;;;;;;14.28;100.00;96942.19;5053630;28;20170;-55
2022/11/17 11:25:20;;;;;;;38.53;23.05;;;;;;;14.33;100.00;96946.91;5053278;28;20231;-55
2022/11/17 11:28:08;;;;;;;94.00;48.03;;;;;;;14.35;100.00;96955.38;5052809;28;20655;-56
2022/11/17 11:30:46;;;;;;;67.35;37.90;;;;;;;14.36;100.00;96949.19;5053684;28;20154;-55
2022/11/17 11:33:32;;;;;;;56.70;32.97;;;;;;;14.35;100.00;96955.38;5053426;28;20166;-56
2022/11/17 11:36:13;;;;;;;29.17;18.58;;;;;;;14.39;100.00;96960.09;5053264;28;20165;-55
2022/11/17 11:39:12;;;;;;;25.95;17.10;;;;;;;14.44;100.00;96964.78;5053322;28;20623;-56
2022/11/17 11:42:02;;;;;;;23.40;16.23;;;;;;;14.51;100.00;96969.19;5053313;28;20542;-55
2022/11/17 11:45:03;;;;;;;30.48;20.25;;;;;;;14.47;100.00;96957.47;5052994;28;20645;-55
2022/11/17 11:47:53;;;;;;;33.55;22.92;;;;;;;14.52;100.00;96965.59;5051546;28;20193;-55
2022/11/17 11:50:23;;;;;;;37.92;23.25;;;;;;;14.55;100.00;96965.28;5053059;28;20169;-55
2022/11/17 11:53:27;;;;;;;38.92;24.92;;;;;;;14.51;100.00;96963.16;5052641;28;20687;-54
2022/11/17 11:56:27;;;;;;;38.45;25.95;;;;;;;14.49;100.00;96975.53;5033726;28;20669;-55